sensor_id;sensor_type;location;lat;lon;timestamp;P1;durP1;ratioP1;P2;durP2;ratioP2
20743;SDS011;56303;52.160;-0.428;2023-02-11T00:00:41;19.07;;;16.63;;
20743;SDS011;56303;52.160;-0.428;2023-02-11T00:03:08;20.07;;;16.70;;
20743;SDS011;56303;52.160;-0.428;2023-02-11T00:05:35;18.83;;;16.83;;
20743;SDS011;56303;52.160;-0.428;2023-02-11T00:08:02;19.20;;;17.10;;
20743;SDS011;56303;52.160;-0.428;2023-02-11T00:10:30;20.77;;;17.47;;
20743;SDS011;56303;52.160;-0.428;2023-02-11T00:12:57;19.97;;;17.87;;
20743;SDS011;56303;52.160;-0.428;2023-02-11T00:15:24;20.70;;;17.83;;
20743;SDS011;56303;52.160;-0.428;2023-02-11T00:17:52;19.07;;;17.07;;
20743;SDS011;56303;52.160;-0.428;2023-02-11T00:20:19;20.40;;;18.20;;
20743;SDS011;56303;52.160;-0.428;2023-02-11T00:22:46;20.00;;;17.80;;
20743;SDS011;56303;52.160;-0.428;2023-02-11T00:25:13;19.97;;;17.63;;
20743;SDS011;56303;52.160;-0.428;2023-02-11T00:27:40;19.73;;;17.67;;
20743;SDS011;56303;52.160;-0.428;2023-02-11T00:30:07;19.73;;;17.23;;
20743;SDS011;56303;52.160;-0.428;2023-02-11T00:32:34;20.73;;;18.13;;
20743;SDS011;56303;52.160;-0.428;2023-02-11T00:35:02;19.60;;;17.23;;
20743;SDS011;56303;52.160;-0.428;2023-02-11T00:37:28;21.03;;;17.23;;
20743;SDS011;56303;52.160;-0.428;2023-02-11T00:39:55;20.87;;;17.47;;
20743;SDS011;56303;52.160;-0.428;2023-02-11T00:42:22;20.50;;;16.40;;
20743;SDS011;56303;52.160;-0.428;2023-02-11T00:44:49;19.80;;;16.90;;
20743;SDS011;56303;52.160;-0.428;2023-02-11T00:47:16;21.23;;;18.00;;
20743;SDS011;56303;52.160;-0.428;2023-02-11T00:49:43;20.17;;;17.30;;
20743;SDS011;56303;52.160;-0.428;2023-02-11T00:52:10;20.43;;;17.27;;
20743;SDS011;56303;52.160;-0.428;2023-02-11T00:54:37;20.90;;;17.97;;
20743;SDS011;56303;52.160;-0.428;2023-02-11T00:57:04;20.30;;;17.97;;
20743;SDS011;56303;52.160;-0.428;2023-02-11T00:59:30;20.53;;;18.33;;
20743;SDS011;56303;52.160;-0.428;2023-02-11T01:01:57;20.80;;;16.80;;
20743;SDS011;56303;52.160;-0.428;2023-02-11T01:04:24;18.27;;;16.37;;
20743;SDS011;56303;52.160;-0.428;2023-02-11T01:06:51;20.13;;;17.17;;
20743;SDS011;56303;52.160;-0.428;2023-02-11T01:09:18;18.73;;;16.37;;
20743;SDS011;56303;52.160;-0.428;2023-02-11T01:11:46;18.33;;;16.43;;
20743;SDS011;56303;52.160;-0.428;2023-02-11T01:14:13;17.93;;;15.80;;
20743;SDS011;56303;52.160;-0.428;2023-02-11T01:16:40;18.23;;;16.30;;
20743;SDS011;56303;52.160;-0.428;2023-02-11T01:19:07;17.90;;;15.90;;
20743;SDS011;56303;52.160;-0.428;2023-02-11T01:21:34;17.50;;;15.00;;
20743;SDS011;56303;52.160;-0.428;2023-02-11T01:24:04;18.93;;;15.87;;
20743;SDS011;56303;52.160;-0.428;2023-02-11T01:26:32;17.27;;;14.73;;
20743;SDS011;56303;52.160;-0.428;2023-02-11T01:28:59;15.67;;;13.73;;
20743;SDS011;56303;52.160;-0.428;2023-02-11T01:31:26;16.03;;;14.17;;
20743;SDS011;56303;52.160;-0.428;2023-02-11T01:33:53;17.53;;;14.33;;
20743;SDS011;56303;52.160;-0.428;2023-02-11T01:36:20;16.20;;;13.77;;
20743;SDS011;56303;52.160;-0.428;2023-02-11T01:38:47;15.37;;;13.77;;
20743;SDS011;56303;52.160;-0.428;2023-02-11T01:41:15;16.50;;;13.47;;
20743;SDS011;56303;52.160;-0.428;2023-02-11T01:43:45;17.03;;;14.80;;
20743;SDS011;56303;52.160;-0.428;2023-02-11T01:49:05;16.73;;;13.77;;
20743;SDS011;56303;52.160;-0.428;2023-02-11T01:51:43;16.13;;;13.40;;
20743;SDS011;56303;52.160;-0.428;2023-02-11T01:54:18;16.30;;;13.23;;
20743;SDS011;56303;52.160;-0.428;2023-02-11T01:57:08;17.07;;;13.60;;
20743;SDS011;56303;52.160;-0.428;2023-02-11T02:02:22;17.67;;;15.33;;
20743;SDS011;56303;52.160;-0.428;2023-02-11T02:04:59;16.73;;;14.07;;
20743;SDS011;56303;52.160;-0.428;2023-02-11T02:07:51;18.00;;;14.30;;
20743;SDS011;56303;52.160;-0.428;2023-02-11T02:10:25;19.87;;;14.57;;
20743;SDS011;56303;52.160;-0.428;2023-02-11T02:12:54;20.10;;;15.50;;
20743;SDS011;56303;52.160;-0.428;2023-02-11T02:15:28;18.60;;;13.70;;
20743;SDS011;56303;52.160;-0.428;2023-02-11T02:36:06;19.67;;;15.20;;
20743;SDS011;56303;52.160;-0.428;2023-02-11T02:41:16;19.80;;;15.93;;
20743;SDS011;56303;52.160;-0.428;2023-02-11T02:43:49;18.70;;;15.23;;
20743;SDS011;56303;52.160;-0.428;2023-02-11T02:48:52;18.87;;;14.60;;
20743;SDS011;56303;52.160;-0.428;2023-02-11T02:57:29;19.90;;;15.47;;
20743;SDS011;56303;52.160;-0.428;2023-02-11T03:05:55;18.03;;;14.97;;
20743;SDS011;56303;52.160;-0.428;2023-02-11T03:08:33;19.80;;;14.50;;
20743;SDS011;56303;52.160;-0.428;2023-02-11T03:11:18;20.47;;;15.00;;
20743;SDS011;56303;52.160;-0.428;2023-02-11T03:13:47;21.63;;;14.60;;
20743;SDS011;56303;52.160;-0.428;2023-02-11T03:16:17;23.93;;;15.77;;
20743;SDS011;56303;52.160;-0.428;2023-02-11T03:18:48;22.73;;;17.30;;
20743;SDS011;56303;52.160;-0.428;2023-02-11T03:21:18;22.63;;;15.80;;
20743;SDS011;56303;52.160;-0.428;2023-02-11T03:23:54;22.47;;;16.63;;
20743;SDS011;56303;52.160;-0.428;2023-02-11T03:26:27;23.73;;;16.53;;
20743;SDS011;56303;52.160;-0.428;2023-02-11T03:31:50;20.27;;;15.97;;
20743;SDS011;56303;52.160;-0.428;2023-02-11T03:37:03;20.10;;;15.33;;
20743;SDS011;56303;52.160;-0.428;2023-02-11T03:39:35;20.67;;;14.77;;
20743;SDS011;56303;52.160;-0.428;2023-02-11T03:42:05;21.03;;;14.90;;
20743;SDS011;56303;52.160;-0.428;2023-02-11T03:44:35;19.57;;;15.13;;
20743;SDS011;56303;52.160;-0.428;2023-02-11T03:47:06;17.50;;;13.37;;
20743;SDS011;56303;52.160;-0.428;2023-02-11T03:49:36;16.17;;;12.77;;
20743;SDS011;56303;52.160;-0.428;2023-02-11T03:52:05;17.77;;;13.80;;
20743;SDS011;56303;52.160;-0.428;2023-02-11T03:54:38;17.63;;;12.57;;
20743;SDS011;56303;52.160;-0.428;2023-02-11T03:57:08;13.93;;;10.73;;
20743;SDS011;56303;52.160;-0.428;2023-02-11T03:59:48;14.90;;;11.37;;
20743;SDS011;56303;52.160;-0.428;2023-02-11T04:02:16;16.87;;;12.00;;
20743;SDS011;56303;52.160;-0.428;2023-02-11T04:04:43;16.57;;;12.13;;
20743;SDS011;56303;52.160;-0.428;2023-02-11T04:07:11;17.03;;;12.00;;
20743;SDS011;56303;52.160;-0.428;2023-02-11T04:09:38;14.63;;;12.13;;
20743;SDS011;56303;52.160;-0.428;2023-02-11T04:12:05;15.83;;;11.60;;
20743;SDS011;56303;52.160;-0.428;2023-02-11T04:14:32;15.47;;;12.27;;
20743;SDS011;56303;52.160;-0.428;2023-02-11T04:16:59;15.07;;;11.77;;
20743;SDS011;56303;52.160;-0.428;2023-02-11T04:19:26;16.87;;;11.50;;
20743;SDS011;56303;52.160;-0.428;2023-02-11T04:21:53;15.10;;;11.67;;
20743;SDS011;56303;52.160;-0.428;2023-02-11T04:24:19;14.27;;;11.30;;
20743;SDS011;56303;52.160;-0.428;2023-02-11T04:26:46;14.67;;;10.03;;
20743;SDS011;56303;52.160;-0.428;2023-02-11T04:29:13;14.17;;;11.07;;
20743;SDS011;56303;52.160;-0.428;2023-02-11T04:31:40;13.63;;;11.03;;
20743;SDS011;56303;52.160;-0.428;2023-02-11T04:34:07;13.10;;;10.57;;
20743;SDS011;56303;52.160;-0.428;2023-02-11T04:36:35;15.53;;;10.53;;
20743;SDS011;56303;52.160;-0.428;2023-02-11T04:39:02;12.63;;;10.43;;
20743;SDS011;56303;52.160;-0.428;2023-02-11T04:41:29;13.77;;;10.23;;
20743;SDS011;56303;52.160;-0.428;2023-02-11T04:43:56;14.63;;;10.50;;
20743;SDS011;56303;52.160;-0.428;2023-02-11T04:46:23;16.27;;;10.97;;
20743;SDS011;56303;52.160;-0.428;2023-02-11T04:48:50;13.60;;;10.47;;
20743;SDS011;56303;52.160;-0.428;2023-02-11T04:51:16;15.90;;;11.73;;
20743;SDS011;56303;52.160;-0.428;2023-02-11T04:53:43;14.90;;;11.13;;
20743;SDS011;56303;52.160;-0.428;2023-02-11T04:56:10;15.40;;;10.63;;
20743;SDS011;56303;52.160;-0.428;2023-02-11T04:58:37;14.30;;;11.30;;
20743;SDS011;56303;52.160;-0.428;2023-02-11T05:01:07;14.53;;;10.50;;
20743;SDS011;56303;52.160;-0.428;2023-02-11T05:03:36;13.87;;;10.40;;
20743;SDS011;56303;52.160;-0.428;2023-02-11T05:06:03;13.60;;;10.07;;
20743;SDS011;56303;52.160;-0.428;2023-02-11T05:08:31;14.50;;;10.70;;
20743;SDS011;56303;52.160;-0.428;2023-02-11T05:10:59;12.67;;;10.30;;
20743;SDS011;56303;52.160;-0.428;2023-02-11T05:13:27;13.27;;;9.67;;
20743;SDS011;56303;52.160;-0.428;2023-02-11T05:15:54;14.83;;;9.90;;
20743;SDS011;56303;52.160;-0.428;2023-02-11T05:18:21;10.73;;;8.70;;
20743;SDS011;56303;52.160;-0.428;2023-02-11T05:20:49;11.33;;;9.27;;
20743;SDS011;56303;52.160;-0.428;2023-02-11T05:23:16;12.60;;;8.17;;
20743;SDS011;56303;52.160;-0.428;2023-02-11T05:25:42;10.97;;;9.27;;
20743;SDS011;56303;52.160;-0.428;2023-02-11T05:28:09;13.23;;;9.13;;
20743;SDS011;56303;52.160;-0.428;2023-02-11T05:30:36;13.17;;;8.77;;
20743;SDS011;56303;52.160;-0.428;2023-02-11T05:33:03;12.90;;;8.97;;
20743;SDS011;56303;52.160;-0.428;2023-02-11T05:35:31;12.20;;;8.47;;
20743;SDS011;56303;52.160;-0.428;2023-02-11T05:37:57;11.47;;;9.10;;
20743;SDS011;56303;52.160;-0.428;2023-02-11T05:40:24;11.07;;;9.10;;
20743;SDS011;56303;52.160;-0.428;2023-02-11T05:42:52;11.10;;;8.63;;
20743;SDS011;56303;52.160;-0.428;2023-02-11T05:45:19;12.97;;;8.17;;
20743;SDS011;56303;52.160;-0.428;2023-02-11T05:47:45;13.60;;;7.60;;
20743;SDS011;56303;52.160;-0.428;2023-02-11T05:50:12;14.63;;;8.23;;
20743;SDS011;56303;52.160;-0.428;2023-02-11T05:52:39;11.03;;;7.80;;
20743;SDS011;56303;52.160;-0.428;2023-02-11T05:55:06;10.57;;;7.63;;
20743;SDS011;56303;52.160;-0.428;2023-02-11T05:57:33;10.53;;;7.97;;
20743;SDS011;56303;52.160;-0.428;2023-02-11T06:00:00;12.73;;;7.60;;
20743;SDS011;56303;52.160;-0.428;2023-02-11T06:02:29;12.90;;;7.80;;
20743;SDS011;56303;52.160;-0.428;2023-02-11T06:04:56;9.93;;;7.67;;
20743;SDS011;56303;52.160;-0.428;2023-02-11T06:07:22;12.23;;;8.30;;
20743;SDS011;56303;52.160;-0.428;2023-02-11T06:09:49;10.47;;;8.00;;
20743;SDS011;56303;52.160;-0.428;2023-02-11T06:12:16;9.17;;;6.73;;
20743;SDS011;56303;52.160;-0.428;2023-02-11T06:14:43;11.90;;;8.60;;
20743;SDS011;56303;52.160;-0.428;2023-02-11T06:17:10;10.63;;;7.90;;
20743;SDS011;56303;52.160;-0.428;2023-02-11T06:19:40;10.80;;;8.17;;
20743;SDS011;56303;52.160;-0.428;2023-02-11T06:22:07;12.60;;;9.37;;
20743;SDS011;56303;52.160;-0.428;2023-02-11T06:24:35;11.60;;;8.63;;
20743;SDS011;56303;52.160;-0.428;2023-02-11T06:27:24;9.80;;;8.13;;
20743;SDS011;56303;52.160;-0.428;2023-02-11T06:29:51;12.33;;;8.60;;
20743;SDS011;56303;52.160;-0.428;2023-02-11T06:32:18;10.73;;;8.77;;
20743;SDS011;56303;52.160;-0.428;2023-02-11T06:35:05;12.83;;;8.63;;
20743;SDS011;56303;52.160;-0.428;2023-02-11T06:37:35;13.67;;;8.30;;
20743;SDS011;56303;52.160;-0.428;2023-02-11T06:40:04;12.50;;;8.67;;
20743;SDS011;56303;52.160;-0.428;2023-02-11T06:42:31;14.57;;;9.37;;
20743;SDS011;56303;52.160;-0.428;2023-02-11T06:44:58;13.30;;;8.20;;
20743;SDS011;56303;52.160;-0.428;2023-02-11T06:47:25;12.63;;;8.03;;
20743;SDS011;56303;52.160;-0.428;2023-02-11T06:49:52;12.23;;;8.93;;
20743;SDS011;56303;52.160;-0.428;2023-02-11T06:52:18;12.73;;;8.67;;
20743;SDS011;56303;52.160;-0.428;2023-02-11T06:54:45;10.83;;;9.00;;
20743;SDS011;56303;52.160;-0.428;2023-02-11T06:57:12;11.63;;;8.57;;
20743;SDS011;56303;52.160;-0.428;2023-02-11T06:59:39;11.07;;;8.63;;
20743;SDS011;56303;52.160;-0.428;2023-02-11T07:02:08;10.83;;;8.50;;
20743;SDS011;56303;52.160;-0.428;2023-02-11T07:04:35;12.70;;;8.37;;
20743;SDS011;56303;52.160;-0.428;2023-02-11T07:07:03;13.83;;;9.23;;
20743;SDS011;56303;52.160;-0.428;2023-02-11T07:09:30;13.57;;;8.77;;
20743;SDS011;56303;52.160;-0.428;2023-02-11T07:11:57;14.33;;;9.03;;
20743;SDS011;56303;52.160;-0.428;2023-02-11T07:14:25;16.47;;;9.63;;
20743;SDS011;56303;52.160;-0.428;2023-02-11T07:16:52;15.20;;;10.57;;
20743;SDS011;56303;52.160;-0.428;2023-02-11T07:19:19;16.43;;;10.47;;
20743;SDS011;56303;52.160;-0.428;2023-02-11T07:21:46;15.00;;;9.53;;
20743;SDS011;56303;52.160;-0.428;2023-02-11T07:24:13;16.63;;;10.03;;
20743;SDS011;56303;52.160;-0.428;2023-02-11T07:26:40;11.83;;;9.20;;
20743;SDS011;56303;52.160;-0.428;2023-02-11T07:29:07;14.80;;;9.97;;
20743;SDS011;56303;52.160;-0.428;2023-02-11T07:31:34;14.03;;;9.80;;
20743;SDS011;56303;52.160;-0.428;2023-02-11T07:34:01;16.10;;;9.53;;
20743;SDS011;56303;52.160;-0.428;2023-02-11T07:36:29;14.40;;;10.37;;
20743;SDS011;56303;52.160;-0.428;2023-02-11T07:38:57;15.27;;;9.40;;
20743;SDS011;56303;52.160;-0.428;2023-02-11T07:41:25;13.57;;;10.07;;
20743;SDS011;56303;52.160;-0.428;2023-02-11T07:43:52;15.00;;;10.47;;
20743;SDS011;56303;52.160;-0.428;2023-02-11T07:46:23;17.90;;;10.20;;
20743;SDS011;56303;52.160;-0.428;2023-02-11T07:48:52;12.40;;;9.33;;
20743;SDS011;56303;52.160;-0.428;2023-02-11T07:51:20;17.40;;;9.77;;
20743;SDS011;56303;52.160;-0.428;2023-02-11T07:53:49;15.13;;;10.10;;
20743;SDS011;56303;52.160;-0.428;2023-02-11T07:56:17;13.63;;;10.30;;
20743;SDS011;56303;52.160;-0.428;2023-02-11T07:58:45;13.87;;;9.60;;
20743;SDS011;56303;52.160;-0.428;2023-02-11T08:01:14;17.30;;;9.90;;
20743;SDS011;56303;52.160;-0.428;2023-02-11T08:03:42;16.30;;;10.57;;
20743;SDS011;56303;52.160;-0.428;2023-02-11T08:06:10;15.03;;;9.73;;
20743;SDS011;56303;52.160;-0.428;2023-02-11T08:08:39;13.37;;;9.67;;
20743;SDS011;56303;52.160;-0.428;2023-02-11T08:11:07;13.47;;;11.70;;
20743;SDS011;56303;52.160;-0.428;2023-02-11T08:13:35;13.13;;;10.27;;
20743;SDS011;56303;52.160;-0.428;2023-02-11T08:16:03;14.70;;;11.17;;
20743;SDS011;56303;52.160;-0.428;2023-02-11T08:18:31;13.40;;;10.20;;
20743;SDS011;56303;52.160;-0.428;2023-02-11T08:21:04;13.80;;;9.73;;
20743;SDS011;56303;52.160;-0.428;2023-02-11T08:23:36;12.97;;;8.93;;
20743;SDS011;56303;52.160;-0.428;2023-02-11T08:26:14;15.37;;;8.83;;
20743;SDS011;56303;52.160;-0.428;2023-02-11T08:28:43;12.73;;;9.33;;
20743;SDS011;56303;52.160;-0.428;2023-02-11T08:31:15;12.40;;;8.83;;
20743;SDS011;56303;52.160;-0.428;2023-02-11T08:33:43;14.60;;;9.03;;
20743;SDS011;56303;52.160;-0.428;2023-02-11T08:36:12;15.27;;;9.73;;
20743;SDS011;56303;52.160;-0.428;2023-02-11T08:38:40;14.00;;;8.07;;
20743;SDS011;56303;52.160;-0.428;2023-02-11T08:41:07;11.70;;;8.17;;
20743;SDS011;56303;52.160;-0.428;2023-02-11T08:43:35;15.43;;;8.93;;
20743;SDS011;56303;52.160;-0.428;2023-02-11T08:46:02;13.13;;;8.00;;
20743;SDS011;56303;52.160;-0.428;2023-02-11T08:48:30;13.17;;;8.50;;
20743;SDS011;56303;52.160;-0.428;2023-02-11T08:50:58;14.17;;;8.50;;
20743;SDS011;56303;52.160;-0.428;2023-02-11T08:53:25;12.80;;;8.30;;
20743;SDS011;56303;52.160;-0.428;2023-02-11T08:55:53;10.60;;;6.47;;
20743;SDS011;56303;52.160;-0.428;2023-02-11T08:58:21;10.23;;;7.47;;
20743;SDS011;56303;52.160;-0.428;2023-02-11T09:00:48;13.63;;;6.97;;
20743;SDS011;56303;52.160;-0.428;2023-02-11T09:03:16;10.50;;;6.97;;
20743;SDS011;56303;52.160;-0.428;2023-02-11T09:05:46;8.77;;;6.57;;
20743;SDS011;56303;52.160;-0.428;2023-02-11T09:08:15;8.47;;;7.03;;
20743;SDS011;56303;52.160;-0.428;2023-02-11T09:10:42;8.43;;;6.67;;
20743;SDS011;56303;52.160;-0.428;2023-02-11T09:13:10;9.20;;;5.80;;
20743;SDS011;56303;52.160;-0.428;2023-02-11T09:15:37;8.70;;;6.37;;
20743;SDS011;56303;52.160;-0.428;2023-02-11T09:18:04;9.90;;;6.47;;
20743;SDS011;56303;52.160;-0.428;2023-02-11T09:20:31;10.53;;;6.90;;
20743;SDS011;56303;52.160;-0.428;2023-02-11T09:22:58;11.80;;;6.73;;
20743;SDS011;56303;52.160;-0.428;2023-02-11T09:25:25;10.50;;;6.20;;
20743;SDS011;56303;52.160;-0.428;2023-02-11T09:27:52;9.33;;;6.17;;
20743;SDS011;56303;52.160;-0.428;2023-02-11T09:30:19;9.27;;;5.60;;
20743;SDS011;56303;52.160;-0.428;2023-02-11T09:32:46;7.93;;;5.43;;
20743;SDS011;56303;52.160;-0.428;2023-02-11T09:35:13;8.60;;;5.90;;
20743;SDS011;56303;52.160;-0.428;2023-02-11T09:37:40;7.37;;;5.33;;
20743;SDS011;56303;52.160;-0.428;2023-02-11T09:40:07;9.07;;;5.47;;
20743;SDS011;56303;52.160;-0.428;2023-02-11T09:42:50;8.80;;;4.90;;
20743;SDS011;56303;52.160;-0.428;2023-02-11T09:45:29;7.63;;;5.13;;
20743;SDS011;56303;52.160;-0.428;2023-02-11T09:50:33;7.67;;;4.80;;
20743;SDS011;56303;52.160;-0.428;2023-02-11T09:53:05;8.73;;;4.70;;
20743;SDS011;56303;52.160;-0.428;2023-02-11T09:55:39;7.83;;;4.40;;
20743;SDS011;56303;52.160;-0.428;2023-02-11T09:58:12;6.10;;;4.07;;
20743;SDS011;56303;52.160;-0.428;2023-02-11T10:00:43;7.83;;;4.20;;
20743;SDS011;56303;52.160;-0.428;2023-02-11T10:03:20;6.83;;;3.83;;
20743;SDS011;56303;52.160;-0.428;2023-02-11T10:11:48;7.03;;;3.83;;
20743;SDS011;56303;52.160;-0.428;2023-02-11T10:17:37;7.43;;;4.03;;
20743;SDS011;56303;52.160;-0.428;2023-02-11T10:23:07;6.13;;;3.60;;
20743;SDS011;56303;52.160;-0.428;2023-02-11T10:25:42;6.17;;;2.83;;
20743;SDS011;56303;52.160;-0.428;2023-02-11T10:28:16;5.93;;;2.97;;
20743;SDS011;56303;52.160;-0.428;2023-02-11T10:30:55;7.07;;;3.77;;
20743;SDS011;56303;52.160;-0.428;2023-02-11T10:36:10;8.97;;;3.17;;
20743;SDS011;56303;52.160;-0.428;2023-02-11T10:38:39;7.50;;;3.27;;
20743;SDS011;56303;52.160;-0.428;2023-02-11T10:41:08;5.17;;;3.40;;
20743;SDS011;56303;52.160;-0.428;2023-02-11T10:43:41;5.97;;;3.13;;
20743;SDS011;56303;52.160;-0.428;2023-02-11T10:46:11;4.33;;;2.60;;
20743;SDS011;56303;52.160;-0.428;2023-02-11T10:51:24;6.50;;;3.30;;
20743;SDS011;56303;52.160;-0.428;2023-02-11T10:56:48;5.63;;;3.13;;
20743;SDS011;56303;52.160;-0.428;2023-02-11T10:59:20;5.83;;;2.80;;
20743;SDS011;56303;52.160;-0.428;2023-02-11T11:01:51;5.80;;;3.10;;
20743;SDS011;56303;52.160;-0.428;2023-02-11T11:07:14;4.23;;;2.43;;
20743;SDS011;56303;52.160;-0.428;2023-02-11T11:09:54;8.50;;;3.03;;
20743;SDS011;56303;52.160;-0.428;2023-02-11T11:12:27;4.03;;;2.10;;
20743;SDS011;56303;52.160;-0.428;2023-02-11T11:14:56;5.60;;;2.67;;
20743;SDS011;56303;52.160;-0.428;2023-02-11T11:17:38;4.97;;;2.87;;
20743;SDS011;56303;52.160;-0.428;2023-02-11T11:22:48;7.20;;;2.73;;
20743;SDS011;56303;52.160;-0.428;2023-02-11T11:25:22;6.90;;;2.73;;
20743;SDS011;56303;52.160;-0.428;2023-02-11T11:27:58;6.13;;;2.47;;
20743;SDS011;56303;52.160;-0.428;2023-02-11T11:30:32;7.63;;;2.00;;
20743;SDS011;56303;52.160;-0.428;2023-02-11T11:36:12;3.30;;;2.20;;
20743;SDS011;56303;52.160;-0.428;2023-02-11T11:38:52;3.23;;;1.90;;
20743;SDS011;56303;52.160;-0.428;2023-02-11T11:41:29;3.43;;;1.73;;
20743;SDS011;56303;52.160;-0.428;2023-02-11T11:44:00;5.50;;;1.90;;
20743;SDS011;56303;52.160;-0.428;2023-02-11T11:46:36;3.33;;;2.27;;
20743;SDS011;56303;52.160;-0.428;2023-02-11T11:52:10;2.80;;;1.80;;
20743;SDS011;56303;52.160;-0.428;2023-02-11T11:57:42;5.23;;;2.20;;
20743;SDS011;56303;52.160;-0.428;2023-02-11T12:00:14;6.20;;;2.00;;
20743;SDS011;56303;52.160;-0.428;2023-02-11T12:05:41;2.47;;;1.73;;
20743;SDS011;56303;52.160;-0.428;2023-02-11T12:08:23;3.30;;;2.00;;
20743;SDS011;56303;52.160;-0.428;2023-02-11T12:20:25;4.17;;;2.40;;
20743;SDS011;56303;52.160;-0.428;2023-02-11T12:25:35;3.30;;;2.13;;
20743;SDS011;56303;52.160;-0.428;2023-02-11T12:31:11;4.57;;;2.60;;
20743;SDS011;56303;52.160;-0.428;2023-02-11T12:33:45;4.77;;;2.20;;
20743;SDS011;56303;52.160;-0.428;2023-02-11T12:45:59;4.10;;;2.20;;
20743;SDS011;56303;52.160;-0.428;2023-02-11T12:53:35;4.93;;;2.30;;
20743;SDS011;56303;52.160;-0.428;2023-02-11T12:56:11;3.20;;;2.10;;
20743;SDS011;56303;52.160;-0.428;2023-02-11T12:58:44;5.20;;;2.20;;
20743;SDS011;56303;52.160;-0.428;2023-02-11T13:01:15;3.83;;;2.33;;
20743;SDS011;56303;52.160;-0.428;2023-02-11T13:04:27;4.50;;;2.10;;
20743;SDS011;56303;52.160;-0.428;2023-02-11T13:06:48;6.93;;;2.27;;
20743;SDS011;56303;52.160;-0.428;2023-02-11T13:09:24;3.13;;;2.03;;
20743;SDS011;56303;52.160;-0.428;2023-02-11T13:11:59;5.97;;;2.00;;
20743;SDS011;56303;52.160;-0.428;2023-02-11T13:14:48;6.83;;;2.13;;
20743;SDS011;56303;52.160;-0.428;2023-02-11T13:17:36;4.57;;;2.10;;
20743;SDS011;56303;52.160;-0.428;2023-02-11T13:20:25;3.37;;;1.93;;
20743;SDS011;56303;52.160;-0.428;2023-02-11T13:23:04;6.73;;;2.00;;
20743;SDS011;56303;52.160;-0.428;2023-02-11T13:25:43;3.23;;;2.00;;
20743;SDS011;56303;52.160;-0.428;2023-02-11T13:28:24;5.83;;;2.07;;
20743;SDS011;56303;52.160;-0.428;2023-02-11T13:31:02;5.50;;;2.20;;
20743;SDS011;56303;52.160;-0.428;2023-02-11T13:33:33;4.27;;;2.30;;
20743;SDS011;56303;52.160;-0.428;2023-02-11T13:38:30;3.83;;;2.03;;
20743;SDS011;56303;52.160;-0.428;2023-02-11T13:41:17;6.00;;;2.30;;
20743;SDS011;56303;52.160;-0.428;2023-02-11T13:44:12;7.00;;;2.30;;
20743;SDS011;56303;52.160;-0.428;2023-02-11T13:52:02;7.33;;;2.93;;
20743;SDS011;56303;52.160;-0.428;2023-02-11T13:59:47;4.57;;;2.30;;
20743;SDS011;56303;52.160;-0.428;2023-02-11T14:02:20;5.27;;;2.33;;
20743;SDS011;56303;52.160;-0.428;2023-02-11T14:05:22;7.97;;;2.53;;
20743;SDS011;56303;52.160;-0.428;2023-02-11T14:08:20;6.07;;;2.50;;
20743;SDS011;56303;52.160;-0.428;2023-02-11T14:16:14;26.77;;;3.97;;
20743;SDS011;56303;52.160;-0.428;2023-02-11T14:19:03;7.17;;;2.87;;
20743;SDS011;56303;52.160;-0.428;2023-02-11T14:21:32;7.40;;;3.13;;
20743;SDS011;56303;52.160;-0.428;2023-02-11T14:26:32;6.77;;;3.00;;
20743;SDS011;56303;52.160;-0.428;2023-02-11T14:43:45;5.43;;;3.50;;
20743;SDS011;56303;52.160;-0.428;2023-02-11T14:46:19;7.00;;;3.33;;
20743;SDS011;56303;52.160;-0.428;2023-02-11T14:48:47;6.77;;;3.33;;
20743;SDS011;56303;52.160;-0.428;2023-02-11T14:51:20;10.70;;;3.23;;
20743;SDS011;56303;52.160;-0.428;2023-02-11T14:53:53;5.20;;;3.20;;
20743;SDS011;56303;52.160;-0.428;2023-02-11T14:56:26;5.90;;;2.90;;
20743;SDS011;56303;52.160;-0.428;2023-02-11T14:58:56;8.20;;;3.40;;
20743;SDS011;56303;52.160;-0.428;2023-02-11T15:01:30;10.67;;;3.63;;
20743;SDS011;56303;52.160;-0.428;2023-02-11T15:04:01;8.80;;;3.30;;
20743;SDS011;56303;52.160;-0.428;2023-02-11T15:06:37;9.10;;;3.60;;
20743;SDS011;56303;52.160;-0.428;2023-02-11T15:09:11;6.67;;;3.43;;
20743;SDS011;56303;52.160;-0.428;2023-02-11T15:11:49;6.43;;;3.73;;
20743;SDS011;56303;52.160;-0.428;2023-02-11T15:14:31;7.23;;;3.73;;
20743;SDS011;56303;52.160;-0.428;2023-02-11T15:17:01;5.40;;;3.10;;
20743;SDS011;56303;52.160;-0.428;2023-02-11T15:19:31;7.03;;;3.57;;
20743;SDS011;56303;52.160;-0.428;2023-02-11T15:22:16;6.60;;;3.67;;
20743;SDS011;56303;52.160;-0.428;2023-02-11T15:27:40;5.80;;;3.77;;
20743;SDS011;56303;52.160;-0.428;2023-02-11T15:32:49;5.93;;;3.87;;
20743;SDS011;56303;52.160;-0.428;2023-02-11T15:35:23;5.80;;;3.23;;
20743;SDS011;56303;52.160;-0.428;2023-02-11T15:37:54;6.33;;;3.57;;
20743;SDS011;56303;52.160;-0.428;2023-02-11T15:40:23;6.03;;;3.10;;
20743;SDS011;56303;52.160;-0.428;2023-02-11T15:42:54;5.70;;;3.60;;
20743;SDS011;56303;52.160;-0.428;2023-02-11T15:47:57;13.60;;;4.30;;
20743;SDS011;56303;52.160;-0.428;2023-02-11T15:50:31;8.60;;;3.70;;
20743;SDS011;56303;52.160;-0.428;2023-02-11T15:53:04;5.60;;;3.93;;
20743;SDS011;56303;52.160;-0.428;2023-02-11T15:55:47;7.80;;;4.13;;
20743;SDS011;56303;52.160;-0.428;2023-02-11T15:58:15;7.03;;;4.03;;
20743;SDS011;56303;52.160;-0.428;2023-02-11T16:00:46;10.20;;;4.60;;
20743;SDS011;56303;52.160;-0.428;2023-02-11T16:03:19;5.37;;;3.80;;
20743;SDS011;56303;52.160;-0.428;2023-02-11T16:05:50;6.93;;;3.67;;
20743;SDS011;56303;52.160;-0.428;2023-02-11T16:08:27;6.37;;;3.10;;
20743;SDS011;56303;52.160;-0.428;2023-02-11T16:10:59;5.07;;;2.67;;
20743;SDS011;56303;52.160;-0.428;2023-02-11T16:13:44;4.33;;;3.03;;
20743;SDS011;56303;52.160;-0.428;2023-02-11T16:16:19;4.47;;;2.80;;
20743;SDS011;56303;52.160;-0.428;2023-02-11T16:18:57;10.83;;;3.07;;
20743;SDS011;56303;52.160;-0.428;2023-02-11T16:21:35;4.40;;;2.70;;
20743;SDS011;56303;52.160;-0.428;2023-02-11T16:24:14;5.07;;;2.93;;
20743;SDS011;56303;52.160;-0.428;2023-02-11T16:26:46;6.87;;;3.40;;
20743;SDS011;56303;52.160;-0.428;2023-02-11T16:29:16;5.17;;;2.93;;
20743;SDS011;56303;52.160;-0.428;2023-02-11T16:31:47;4.97;;;3.07;;
20743;SDS011;56303;52.160;-0.428;2023-02-11T16:34:16;5.83;;;2.93;;
20743;SDS011;56303;52.160;-0.428;2023-02-11T16:36:48;4.20;;;3.00;;
20743;SDS011;56303;52.160;-0.428;2023-02-11T16:39:16;6.47;;;2.93;;
20743;SDS011;56303;52.160;-0.428;2023-02-11T16:41:47;6.77;;;3.30;;
20743;SDS011;56303;52.160;-0.428;2023-02-11T16:44:16;5.13;;;3.67;;
20743;SDS011;56303;52.160;-0.428;2023-02-11T16:46:43;7.20;;;3.30;;
20743;SDS011;56303;52.160;-0.428;2023-02-11T16:49:11;3.97;;;3.00;;
20743;SDS011;56303;52.160;-0.428;2023-02-11T16:51:47;4.63;;;3.10;;
20743;SDS011;56303;52.160;-0.428;2023-02-11T16:54:15;4.90;;;2.60;;
20743;SDS011;56303;52.160;-0.428;2023-02-11T16:56:43;11.87;;;3.70;;
20743;SDS011;56303;52.160;-0.428;2023-02-11T16:59:10;5.73;;;3.60;;
20743;SDS011;56303;52.160;-0.428;2023-02-11T17:01:38;4.93;;;2.83;;
20743;SDS011;56303;52.160;-0.428;2023-02-11T17:04:09;5.07;;;3.60;;
20743;SDS011;56303;52.160;-0.428;2023-02-11T17:06:42;5.33;;;3.70;;
20743;SDS011;56303;52.160;-0.428;2023-02-11T17:09:13;6.77;;;4.07;;
20743;SDS011;56303;52.160;-0.428;2023-02-11T17:11:44;4.77;;;3.90;;
20743;SDS011;56303;52.160;-0.428;2023-02-11T17:14:11;7.03;;;4.43;;
20743;SDS011;56303;52.160;-0.428;2023-02-11T17:16:38;6.37;;;4.07;;
20743;SDS011;56303;52.160;-0.428;2023-02-11T17:19:05;7.40;;;4.00;;
20743;SDS011;56303;52.160;-0.428;2023-02-11T17:21:32;8.70;;;3.77;;
20743;SDS011;56303;52.160;-0.428;2023-02-11T17:24:20;6.00;;;3.83;;